This is the latest recevied weather packets stored in our database for station/object WD4ITN. If no packets are shown the sender has not sent any weather packets the latest 10 day(s).
| Time | Temp. | Humidity | Pressure | Rain* | Wind** | Luminosity | Snow |
|---|---|---|---|---|---|---|---|
| 1787936297 | 25° C | 64% | 1019.2 hPa | 0.25 mm | - | - | - |
| 1787936017 | 25.56° C | 68% | 1019.2 hPa | 0.25 mm | - | - | - |
| 1787935694 | 25.56° C | 68% | 1019.2 hPa | 0.25 mm | - | - | - |
| 1787935397 | 25° C | 72% | 1019.3 hPa | 0.25 mm | - | - | - |
| 1787935101 | 24.44° C | 72% | 1019.3 hPa | 0.25 mm | - | - | - |
| 1787934819 | 24.44° C | 71% | 1019.4 hPa | 0.25 mm | - | - | - |
| 1787934510 | 24.44° C | 71% | 1019.4 hPa | 0.25 mm | - | - | - |
| 1787934202 | 24.44° C | 72% | 1019.4 hPa | 0.25 mm | - | - | - |
| 1787933899 | 24.44° C | 74% | 1019.3 hPa | 0.25 mm | - | - | - |
| 1787933594 | 24.44° C | 72% | 1019.3 hPa | 0.25 mm | - | - | - |
| 1787933313 | 24.44° C | 73% | 1019.3 hPa | 0.25 mm | - | - | - |
| 1787933000 | 24.44° C | 73% | 1019.2 hPa | 0.25 mm | - | - | - |
| 1787932698 | 24.44° C | 75% | 1019.3 hPa | 0.25 mm | - | - | - |
| 1787932395 | 24.44° C | 75% | 1019.3 hPa | 0.25 mm | - | - | - |
| 1787931812 | 23.89° C | 76% | 1019.4 hPa | 0.25 mm | - | - | - |
| 1787931501 | 23.89° C | 73% | 1019.4 hPa | 0.25 mm | - | - | - |
| 1787931202 | 23.89° C | 77% | 1019.4 hPa | 0.25 mm | - | - | - |
| 1787930906 | 23.33° C | 77% | 1019.4 hPa | 0.25 mm | - | - | - |
| 1787930602 | 23.33° C | 78% | 1019.5 hPa | 0.25 mm | - | - | - |
| 1787930321 | 23.33° C | 78% | 1019.5 hPa | 0.25 mm | - | - | - |
| 1787930016 | 23.33° C | 77% | 1019.5 hPa | 0.25 mm | - | - | - |
| 1787929709 | 23.33° C | 77% | 1019.4 hPa | 0.25 mm | - | - | - |
| 1787929406 | 22.78° C | 78% | 1019.5 hPa | 0.25 mm | - | - | - |
| 1787929103 | 23.33° C | 79% | 1019.3 hPa | 0.25 mm | - | - | - |
| 1787928804 | 23.33° C | 79% | 1019.3 hPa | 0.25 mm | - | - | - |
* Rain since midnight (hover to see other rain measurements)
** Current wind speed in m/s (hover to see current wind gust speed)